Terminal Aerodrome Forecast
Issued by NWS

Home | Current Version | Previous Version | Text Only | Print | Product List | Glossary On
Versions: 1 2 3 4 5 6 7 8 9 10 11 12 13 14 15 16 17 18 19 20 21 22 23 24 25 26
000
FTUS43 KMQT 231700 RRA
TAFCMX
TAF
KCMX 231738Z 2318/2418 09009KT P6SM OVC015
      TEMPO 2318/2320 6SM BR BKN009
     FM232000 09007KT P6SM OVC025
     FM232200 10008KT P6SM BKN035
     FM240400 11006KT 3SM BR BKN004
     FM241400 12010KT 6SM BR SCT004 BKN040=

USA.gov is the U.S. government's official web portal to all federal, state and local government web resources and services.